sensor_id;sensor_type;location;lat;lon;timestamp;pressure;altitude;pressure_sealevel;temperature;humidity
64616;BME280;51027;42.162;24.754;2023-04-22T00:00:41;99517.31;;;12.07;100.00
64616;BME280;51027;42.162;24.754;2023-04-22T00:03:07;99520.50;;;12.14;100.00
64616;BME280;51027;42.162;24.754;2023-04-22T00:05:32;99520.13;;;12.22;100.00
64616;BME280;51027;42.162;24.754;2023-04-22T00:07:58;99512.53;;;12.33;100.00
64616;BME280;51027;42.162;24.754;2023-04-22T00:10:24;99506.91;;;12.40;100.00
64616;BME280;51027;42.162;24.754;2023-04-22T00:12:49;99510.31;;;12.43;100.00
64616;BME280;51027;42.162;24.754;2023-04-22T00:15:15;99505.41;;;12.52;100.00
64616;BME280;51027;42.162;24.754;2023-04-22T00:17:42;99490.50;;;12.51;100.00
64616;BME280;51027;42.162;24.754;2023-04-22T00:20:08;99485.53;;;12.45;100.00
64616;BME280;51027;42.162;24.754;2023-04-22T00:22:35;99497.09;;;12.43;100.00
64616;BME280;51027;42.162;24.754;2023-04-22T00:25:00;99481.50;;;12.38;100.00
64616;BME280;51027;42.162;24.754;2023-04-22T00:27:26;99509.94;;;12.50;100.00
64616;BME280;51027;42.162;24.754;2023-04-22T00:29:51;99465.78;;;12.18;100.00
64616;BME280;51027;42.162;24.754;2023-04-22T00:32:17;99506.03;;;12.40;100.00
64616;BME280;51027;42.162;24.754;2023-04-22T00:34:43;99496.94;;;12.63;100.00
64616;BME280;51027;42.162;24.754;2023-04-22T00:37:08;99502.00;;;12.85;100.00
64616;BME280;51027;42.162;24.754;2023-04-22T00:39:34;99492.34;;;12.66;100.00
64616;BME280;51027;42.162;24.754;2023-04-22T00:41:59;99499.69;;;12.79;100.00
64616;BME280;51027;42.162;24.754;2023-04-22T00:44:26;99492.31;;;12.68;100.00
64616;BME280;51027;42.162;24.754;2023-04-22T00:46:52;99501.38;;;12.62;100.00
64616;BME280;51027;42.162;24.754;2023-04-22T00:49:18;99499.75;;;12.60;100.00
64616;BME280;51027;42.162;24.754;2023-04-22T00:51:44;99514.69;;;12.78;100.00
64616;BME280;51027;42.162;24.754;2023-04-22T00:54:09;99513.66;;;12.81;100.00
64616;BME280;51027;42.162;24.754;2023-04-22T00:56:37;99516.31;;;12.63;100.00
64616;BME280;51027;42.162;24.754;2023-04-22T00:59:02;99518.25;;;12.60;100.00
64616;BME280;51027;42.162;24.754;2023-04-22T01:01:29;99516.94;;;12.68;100.00
64616;BME280;51027;42.162;24.754;2023-04-22T01:03:55;99516.38;;;12.62;100.00
64616;BME280;51027;42.162;24.754;2023-04-22T01:06:22;99525.84;;;12.66;100.00
64616;BME280;51027;42.162;24.754;2023-04-22T01:08:48;99525.38;;;12.75;100.00
64616;BME280;51027;42.162;24.754;2023-04-22T01:11:14;99506.13;;;12.56;100.00
64616;BME280;51027;42.162;24.754;2023-04-22T01:13:39;99523.75;;;12.73;100.00
64616;BME280;51027;42.162;24.754;2023-04-22T01:16:06;99512.63;;;12.66;100.00
64616;BME280;51027;42.162;24.754;2023-04-22T01:18:34;99481.56;;;12.54;100.00
64616;BME280;51027;42.162;24.754;2023-04-22T01:21:00;99507.69;;;12.77;100.00
64616;BME280;51027;42.162;24.754;2023-04-22T01:23:27;99508.38;;;12.63;100.00
64616;BME280;51027;42.162;24.754;2023-04-22T01:25:52;99512.81;;;12.63;100.00
64616;BME280;51027;42.162;24.754;2023-04-22T01:28:18;99512.50;;;12.69;100.00
64616;BME280;51027;42.162;24.754;2023-04-22T01:30:43;99512.81;;;12.63;100.00
64616;BME280;51027;42.162;24.754;2023-04-22T01:33:09;99516.53;;;12.59;100.00
64616;BME280;51027;42.162;24.754;2023-04-22T01:35:36;99508.59;;;12.42;100.00
64616;BME280;51027;42.162;24.754;2023-04-22T01:38:03;99510.47;;;12.39;100.00
64616;BME280;51027;42.162;24.754;2023-04-22T01:40:30;99497.94;;;12.26;100.00
64616;BME280;51027;42.162;24.754;2023-04-22T01:42:57;99499.72;;;12.25;100.00
64616;BME280;51027;42.162;24.754;2023-04-22T01:45:23;99508.59;;;12.42;100.00
64616;BME280;51027;42.162;24.754;2023-04-22T01:47:48;99501.06;;;12.34;100.00
64616;BME280;51027;42.162;24.754;2023-04-22T01:50:14;99504.72;;;12.49;100.00
64616;BME280;51027;42.162;24.754;2023-04-22T01:52:40;99498.44;;;12.51;100.00
64616;BME280;51027;42.162;24.754;2023-04-22T01:55:06;99496.66;;;12.52;100.00
64616;BME280;51027;42.162;24.754;2023-04-22T01:57:32;99494.53;;;12.41;100.00
64616;BME280;51027;42.162;24.754;2023-04-22T01:59:57;99497.75;;;12.48;100.00
64616;BME280;51027;42.162;24.754;2023-04-22T02:02:23;99497.66;;;12.49;100.00
64616;BME280;51027;42.162;24.754;2023-04-22T02:04:48;99498.50;;;12.50;100.00
64616;BME280;51027;42.162;24.754;2023-04-22T02:07:14;99501.50;;;12.25;100.00
64616;BME280;51027;42.162;24.754;2023-04-22T02:09:39;99488.69;;;12.34;100.00
64616;BME280;51027;42.162;24.754;2023-04-22T02:12:04;99491.34;;;12.34;100.00
64616;BME280;51027;42.162;24.754;2023-04-22T02:14:30;99487.28;;;12.10;100.00
64616;BME280;51027;42.162;24.754;2023-04-22T02:16:55;99491.47;;;12.14;100.00
64616;BME280;51027;42.162;24.754;2023-04-22T02:19:21;99479.56;;;12.05;100.00
64616;BME280;51027;42.162;24.754;2023-04-22T02:21:46;99494.59;;;12.22;100.00
64616;BME280;51027;42.162;24.754;2023-04-22T02:24:12;99485.50;;;12.10;100.00
64616;BME280;51027;42.162;24.754;2023-04-22T02:26:37;99497.56;;;12.16;100.00
64616;BME280;51027;42.162;24.754;2023-04-22T02:29:03;99496.38;;;12.22;100.00
64616;BME280;51027;42.162;24.754;2023-04-22T02:31:28;99494.41;;;12.08;100.00
64616;BME280;51027;42.162;24.754;2023-04-22T02:33:53;99489.44;;;12.02;100.00
64616;BME280;51027;42.162;24.754;2023-04-22T02:36:19;99497.41;;;12.00;100.00
64616;BME280;51027;42.162;24.754;2023-04-22T02:38:44;99495.19;;;12.10;100.00
64616;BME280;51027;42.162;24.754;2023-04-22T02:41:10;99503.47;;;12.02;100.00
64616;BME280;51027;42.162;24.754;2023-04-22T02:43:35;99500.56;;;12.08;100.00
64616;BME280;51027;42.162;24.754;2023-04-22T02:46:01;99508.81;;;12.20;100.00
64616;BME280;51027;42.162;24.754;2023-04-22T02:48:26;99502.84;;;12.16;100.00
64616;BME280;51027;42.162;24.754;2023-04-22T02:50:51;99501.31;;;12.10;100.00
64616;BME280;51027;42.162;24.754;2023-04-22T02:53:17;99497.13;;;12.06;100.00
64616;BME280;51027;42.162;24.754;2023-04-22T02:55:42;99510.66;;;12.18;100.00
64616;BME280;51027;42.162;24.754;2023-04-22T02:58:08;99509.81;;;12.17;100.00
64616;BME280;51027;42.162;24.754;2023-04-22T03:00:34;99511.50;;;11.82;100.00
64616;BME280;51027;42.162;24.754;2023-04-22T03:03:00;99506.00;;;11.87;100.00
64616;BME280;51027;42.162;24.754;2023-04-22T03:05:25;99515.75;;;11.85;100.00
64616;BME280;51027;42.162;24.754;2023-04-22T03:07:51;99508.53;;;11.69;100.00
64616;BME280;51027;42.162;24.754;2023-04-22T03:10:17;99504.69;;;11.76;100.00
64616;BME280;51027;42.162;24.754;2023-04-22T03:12:42;99502.56;;;11.85;100.00
64616;BME280;51027;42.162;24.754;2023-04-22T03:15:08;99505.28;;;11.83;100.00
64616;BME280;51027;42.162;24.754;2023-04-22T03:17:34;99493.13;;;11.79;100.00
64616;BME280;51027;42.162;24.754;2023-04-22T03:19:59;99509.13;;;11.95;100.00
64616;BME280;51027;42.162;24.754;2023-04-22T03:22:25;99502.41;;;12.06;100.00
64616;BME280;51027;42.162;24.754;2023-04-22T03:24:50;99504.41;;;12.01;100.00
64616;BME280;51027;42.162;24.754;2023-04-22T03:27:16;99506.53;;;12.12;100.00
64616;BME280;51027;42.162;24.754;2023-04-22T03:29:41;99511.59;;;12.17;100.00
64616;BME280;51027;42.162;24.754;2023-04-22T03:32:06;99508.25;;;12.13;100.00
64616;BME280;51027;42.162;24.754;2023-04-22T03:34:32;99479.75;;;11.83;100.00
64616;BME280;51027;42.162;24.754;2023-04-22T03:36:57;99511.31;;;12.04;100.00
64616;BME280;51027;42.162;24.754;2023-04-22T03:39:23;99519.16;;;12.05;100.00
64616;BME280;51027;42.162;24.754;2023-04-22T03:41:48;99524.81;;;12.17;100.00
64616;BME280;51027;42.162;24.754;2023-04-22T03:44:13;99508.75;;;12.02;100.00
64616;BME280;51027;42.162;24.754;2023-04-22T03:46:39;99531.81;;;11.99;100.00
64616;BME280;51027;42.162;24.754;2023-04-22T03:49:05;99537.06;;;11.61;100.00
64616;BME280;51027;42.162;24.754;2023-04-22T03:51:30;99540.28;;;11.29;100.00
64616;BME280;51027;42.162;24.754;2023-04-22T03:53:56;99532.16;;;11.14;100.00
64616;BME280;51027;42.162;24.754;2023-04-22T03:56:21;99545.25;;;11.16;100.00
64616;BME280;51027;42.162;24.754;2023-04-22T03:58:48;99515.03;;;10.84;100.00
64616;BME280;51027;42.162;24.754;2023-04-22T04:01:14;99541.97;;;10.90;100.00
64616;BME280;51027;42.162;24.754;2023-04-22T04:03:39;99538.22;;;10.96;100.00
64616;BME280;51027;42.162;24.754;2023-04-22T04:06:05;99552.97;;;11.00;100.00
64616;BME280;51027;42.162;24.754;2023-04-22T04:08:30;99544.41;;;10.95;100.00
64616;BME280;51027;42.162;24.754;2023-04-22T04:10:55;99556.53;;;10.99;100.00
64616;BME280;51027;42.162;24.754;2023-04-22T04:13:21;99557.06;;;11.07;100.00
64616;BME280;51027;42.162;24.754;2023-04-22T04:15:46;99558.78;;;11.08;100.00
64616;BME280;51027;42.162;24.754;2023-04-22T04:18:12;99548.84;;;10.94;100.00
64616;BME280;51027;42.162;24.754;2023-04-22T04:20:38;99553.56;;;11.07;100.00
64616;BME280;51027;42.162;24.754;2023-04-22T04:23:03;99557.13;;;11.26;100.00
64616;BME280;51027;42.162;24.754;2023-04-22T04:25:28;99559.94;;;11.21;100.00
64616;BME280;51027;42.162;24.754;2023-04-22T04:28:02;99559.38;;;11.15;100.00
64616;BME280;51027;42.162;24.754;2023-04-22T04:30:27;99563.69;;;11.36;100.00
64616;BME280;51027;42.162;24.754;2023-04-22T04:32:53;99563.06;;;11.50;100.00
64616;BME280;51027;42.162;24.754;2023-04-22T04:35:18;99568.16;;;11.54;100.00
64616;BME280;51027;42.162;24.754;2023-04-22T04:37:44;99552.06;;;11.79;100.00
64616;BME280;51027;42.162;24.754;2023-04-22T04:40:10;99568.69;;;11.81;100.00
64616;BME280;51027;42.162;24.754;2023-04-22T04:42:38;99573.56;;;11.70;100.00
64616;BME280;51027;42.162;24.754;2023-04-22T04:45:05;99567.47;;;11.89;100.00
64616;BME280;51027;42.162;24.754;2023-04-22T04:47:30;99569.19;;;12.08;100.00
64616;BME280;51027;42.162;24.754;2023-04-22T04:49:59;99571.41;;;11.99;100.00
64616;BME280;51027;42.162;24.754;2023-04-22T04:52:24;99575.94;;;12.14;100.00
64616;BME280;51027;42.162;24.754;2023-04-22T04:54:49;99589.88;;;11.99;100.00
64616;BME280;51027;42.162;24.754;2023-04-22T04:57:15;99577.72;;;11.95;100.00
64616;BME280;51027;42.162;24.754;2023-04-22T04:59:40;99583.94;;;11.94;100.00
64616;BME280;51027;42.162;24.754;2023-04-22T05:02:05;99587.13;;;12.38;100.00
64616;BME280;51027;42.162;24.754;2023-04-22T05:04:31;99586.94;;;12.60;100.00
64616;BME280;51027;42.162;24.754;2023-04-22T05:06:56;99584.06;;;12.64;100.00
64616;BME280;51027;42.162;24.754;2023-04-22T05:09:22;99591.22;;;12.62;100.00
64616;BME280;51027;42.162;24.754;2023-04-22T05:11:47;99577.06;;;12.63;100.00
64616;BME280;51027;42.162;24.754;2023-04-22T05:14:12;99590.78;;;12.72;100.00
64616;BME280;51027;42.162;24.754;2023-04-22T05:16:38;99588.53;;;12.98;100.00
64616;BME280;51027;42.162;24.754;2023-04-22T05:19:03;99594.56;;;13.18;100.00
64616;BME280;51027;42.162;24.754;2023-04-22T05:21:29;99589.09;;;13.22;100.00
64616;BME280;51027;42.162;24.754;2023-04-22T05:23:55;99594.94;;;13.29;100.00
64616;BME280;51027;42.162;24.754;2023-04-22T05:26:21;99596.22;;;13.38;100.00
64616;BME280;51027;42.162;24.754;2023-04-22T05:28:46;99592.88;;;13.51;100.00
64616;BME280;51027;42.162;24.754;2023-04-22T05:31:11;99601.97;;;13.46;100.00
64616;BME280;51027;42.162;24.754;2023-04-22T05:33:37;99596.75;;;13.62;100.00
64616;BME280;51027;42.162;24.754;2023-04-22T05:36:02;99580.22;;;13.41;100.00
64616;BME280;51027;42.162;24.754;2023-04-22T05:38:28;99600.16;;;13.64;100.00
64616;BME280;51027;42.162;24.754;2023-04-22T05:40:53;99574.44;;;13.66;100.00
64616;BME280;51027;42.162;24.754;2023-04-22T05:43:19;99595.81;;;13.78;100.00
64616;BME280;51027;42.162;24.754;2023-04-22T05:45:44;99596.97;;;14.06;100.00
64616;BME280;51027;42.162;24.754;2023-04-22T05:48:10;99595.19;;;14.06;100.00
64616;BME280;51027;42.162;24.754;2023-04-22T05:50:35;99596.72;;;14.26;100.00
64616;BME280;51027;42.162;24.754;2023-04-22T05:53:00;99592.47;;;14.24;100.00
64616;BME280;51027;42.162;24.754;2023-04-22T05:55:26;99600.22;;;14.58;100.00
64616;BME280;51027;42.162;24.754;2023-04-22T05:57:51;99590.84;;;14.53;100.00
64616;BME280;51027;42.162;24.754;2023-04-22T06:00:17;99597.47;;;14.28;100.00
64616;BME280;51027;42.162;24.754;2023-04-22T06:02:42;99596.88;;;14.70;100.00
64616;BME280;51027;42.162;24.754;2023-04-22T06:05:08;99599.72;;;14.67;100.00
64616;BME280;51027;42.162;24.754;2023-04-22T06:07:34;99602.16;;;14.86;100.00
64616;BME280;51027;42.162;24.754;2023-04-22T06:09:59;99593.22;;;15.03;100.00
64616;BME280;51027;42.162;24.754;2023-04-22T06:12:24;99595.34;;;14.51;100.00
64616;BME280;51027;42.162;24.754;2023-04-22T06:14:50;99586.75;;;14.47;100.00
64616;BME280;51027;42.162;24.754;2023-04-22T06:17:15;99577.31;;;14.73;100.00
64616;BME280;51027;42.162;24.754;2023-04-22T06:19:41;99577.22;;;15.05;100.00
64616;BME280;51027;42.162;24.754;2023-04-22T06:22:06;99594.50;;;14.50;100.00
64616;BME280;51027;42.162;24.754;2023-04-22T06:24:31;99598.25;;;14.78;100.00
64616;BME280;51027;42.162;24.754;2023-04-22T06:26:57;99573.88;;;15.01;100.00
64616;BME280;51027;42.162;24.754;2023-04-22T06:29:23;99593.66;;;15.25;100.00
64616;BME280;51027;42.162;24.754;2023-04-22T06:31:48;99587.19;;;15.15;100.00
64616;BME280;51027;42.162;24.754;2023-04-22T06:34:14;99589.34;;;15.53;100.00
64616;BME280;51027;42.162;24.754;2023-04-22T06:36:39;99601.53;;;15.41;100.00
64616;BME280;51027;42.162;24.754;2023-04-22T06:39:04;99593.69;;;15.54;100.00
64616;BME280;51027;42.162;24.754;2023-04-22T06:41:30;99596.72;;;15.04;100.00
64616;BME280;51027;42.162;24.754;2023-04-22T06:43:57;99588.28;;;15.11;100.00
64616;BME280;51027;42.162;24.754;2023-04-22T06:46:22;99548.16;;;15.17;100.00
64616;BME280;51027;42.162;24.754;2023-04-22T06:48:47;99590.50;;;15.63;100.00
64616;BME280;51027;42.162;24.754;2023-04-22T06:51:13;99590.00;;;15.99;100.00
64616;BME280;51027;42.162;24.754;2023-04-22T06:53:38;99595.09;;;15.45;100.00
64616;BME280;51027;42.162;24.754;2023-04-22T06:56:04;99579.69;;;15.22;100.00
64616;BME280;51027;42.162;24.754;2023-04-22T06:58:30;99591.16;;;15.67;100.00
64616;BME280;51027;42.162;24.754;2023-04-22T07:00:55;99590.88;;;15.86;100.00
64616;BME280;51027;42.162;24.754;2023-04-22T07:03:20;99557.00;;;15.89;100.00
64616;BME280;51027;42.162;24.754;2023-04-22T07:05:46;99597.94;;;16.55;100.00
64616;BME280;51027;42.162;24.754;2023-04-22T07:08:12;99605.56;;;16.47;100.00
64616;BME280;51027;42.162;24.754;2023-04-22T07:10:38;99562.53;;;16.13;100.00
64616;BME280;51027;42.162;24.754;2023-04-22T07:13:04;99591.56;;;16.30;100.00
64616;BME280;51027;42.162;24.754;2023-04-22T07:15:29;99602.88;;;16.88;100.00
64616;BME280;51027;42.162;24.754;2023-04-22T07:17:54;99599.44;;;17.25;100.00
64616;BME280;51027;42.162;24.754;2023-04-22T07:20:20;99597.19;;;16.26;100.00
64616;BME280;51027;42.162;24.754;2023-04-22T07:22:45;99592.94;;;16.50;100.00
64616;BME280;51027;42.162;24.754;2023-04-22T07:25:11;99607.66;;;16.83;100.00
64616;BME280;51027;42.162;24.754;2023-04-22T07:27:36;99597.50;;;16.75;100.00
64616;BME280;51027;42.162;24.754;2023-04-22T07:30:02;99608.50;;;16.83;100.00
64616;BME280;51027;42.162;24.754;2023-04-22T07:32:28;99602.59;;;16.51;100.00
64616;BME280;51027;42.162;24.754;2023-04-22T07:34:53;99610.31;;;16.83;100.00
64616;BME280;51027;42.162;24.754;2023-04-22T07:37:20;99608.75;;;17.06;100.00
64616;BME280;51027;42.162;24.754;2023-04-22T07:39:45;99607.75;;;17.34;100.00
64616;BME280;51027;42.162;24.754;2023-04-22T07:42:11;99605.53;;;17.40;100.00
64616;BME280;51027;42.162;24.754;2023-04-22T07:44:37;99596.59;;;17.54;100.00
64616;BME280;51027;42.162;24.754;2023-04-22T07:47:02;99603.72;;;17.41;100.00
64616;BME280;51027;42.162;24.754;2023-04-22T07:49:27;99595.63;;;17.42;100.00
64616;BME280;51027;42.162;24.754;2023-04-22T07:51:53;99590.72;;;17.87;100.00
64616;BME280;51027;42.162;24.754;2023-04-22T07:54:18;99590.00;;;17.60;100.00
64616;BME280;51027;42.162;24.754;2023-04-22T07:56:44;99596.41;;;17.82;100.00
64616;BME280;51027;42.162;24.754;2023-04-22T07:59:09;99593.66;;;18.21;100.00
64616;BME280;51027;42.162;24.754;2023-04-22T08:01:34;99581.50;;;18.29;100.00
64616;BME280;51027;42.162;24.754;2023-04-22T08:04:00;99592.91;;;18.55;77.04
64616;BME280;51027;42.162;24.754;2023-04-22T08:06:26;99587.97;;;17.76;77.03
64616;BME280;51027;42.162;24.754;2023-04-22T08:08:52;99595.25;;;18.23;76.88
64616;BME280;51027;42.162;24.754;2023-04-22T08:11:17;99580.53;;;18.78;73.49
64616;BME280;51027;42.162;24.754;2023-04-22T08:13:43;99582.50;;;18.03;74.94
64616;BME280;51027;42.162;24.754;2023-04-22T08:16:08;99600.34;;;18.63;73.93
64616;BME280;51027;42.162;24.754;2023-04-22T08:18:34;99594.22;;;18.97;72.17
64616;BME280;51027;42.162;24.754;2023-04-22T08:21:00;99584.66;;;18.71;72.25
64616;BME280;51027;42.162;24.754;2023-04-22T08:23:25;99595.09;;;19.09;73.46
64616;BME280;51027;42.162;24.754;2023-04-22T08:25:51;99591.66;;;19.31;72.81
64616;BME280;51027;42.162;24.754;2023-04-22T08:28:16;99588.38;;;19.39;71.43
64616;BME280;51027;42.162;24.754;2023-04-22T08:30:42;99582.25;;;19.61;70.49
64616;BME280;51027;42.162;24.754;2023-04-22T08:33:07;99577.00;;;20.26;68.13
64616;BME280;51027;42.162;24.754;2023-04-22T08:35:34;99577.94;;;20.59;67.51
64616;BME280;51027;42.162;24.754;2023-04-22T08:38:00;99554.34;;;20.64;66.45
64616;BME280;51027;42.162;24.754;2023-04-22T08:40:26;99569.91;;;20.59;66.29
64616;BME280;51027;42.162;24.754;2023-04-22T08:42:51;99573.59;;;20.35;66.41
64616;BME280;51027;42.162;24.754;2023-04-22T08:45:17;99552.69;;;19.51;68.38
64616;BME280;51027;42.162;24.754;2023-04-22T08:47:43;99557.50;;;19.12;69.92
64616;BME280;51027;42.162;24.754;2023-04-22T08:50:08;99567.41;;;20.35;66.50
64616;BME280;51027;42.162;24.754;2023-04-22T08:52:34;99551.09;;;20.38;66.80
64616;BME280;51027;42.162;24.754;2023-04-22T08:54:59;99561.47;;;20.75;66.97
64616;BME280;51027;42.162;24.754;2023-04-22T08:57:25;99555.47;;;21.03;62.16
64616;BME280;51027;42.162;24.754;2023-04-22T08:59:51;99551.66;;;21.38;63.10
64616;BME280;51027;42.162;24.754;2023-04-22T09:02:21;99540.38;;;21.02;64.14
64616;BME280;51027;42.162;24.754;2023-04-22T09:04:49;99550.81;;;20.52;64.97
64616;BME280;51027;42.162;24.754;2023-04-22T09:09:46;99536.84;;;20.81;64.33
64616;BME280;51027;42.162;24.754;2023-04-22T09:12:12;99539.59;;;21.11;60.26
64616;BME280;51027;42.162;24.754;2023-04-22T09:14:38;99539.66;;;21.00;62.71
64616;BME280;51027;42.162;24.754;2023-04-22T09:17:03;99527.78;;;21.14;60.98
64616;BME280;51027;42.162;24.754;2023-04-22T09:19:29;99524.94;;;20.74;62.60
64616;BME280;51027;42.162;24.754;2023-04-22T09:21:57;99519.94;;;21.22;63.40
64616;BME280;51027;42.162;24.754;2023-04-22T09:24:23;99517.13;;;21.23;63.57
64616;BME280;51027;42.162;24.754;2023-04-22T09:26:48;99518.66;;;21.37;63.06
64616;BME280;51027;42.162;24.754;2023-04-22T09:29:15;99520.75;;;21.64;61.48
64616;BME280;51027;42.162;24.754;2023-04-22T09:31:41;99516.38;;;22.03;60.51
64616;BME280;51027;42.162;24.754;2023-04-22T09:34:07;99514.06;;;21.89;60.74
64616;BME280;51027;42.162;24.754;2023-04-22T09:36:33;99507.91;;;21.98;59.90
64616;BME280;51027;42.162;24.754;2023-04-22T09:39:00;99502.63;;;21.47;61.29
64616;BME280;51027;42.162;24.754;2023-04-22T09:41:37;99494.69;;;21.24;61.37
64616;BME280;51027;42.162;24.754;2023-04-22T09:44:13;99498.84;;;21.90;58.67
64616;BME280;51027;42.162;24.754;2023-04-22T09:46:41;99494.59;;;21.47;59.79
64616;BME280;51027;42.162;24.754;2023-04-22T09:49:06;99491.06;;;21.96;59.14
64616;BME280;51027;42.162;24.754;2023-04-22T09:51:32;99486.22;;;22.11;58.66
64616;BME280;51027;42.162;24.754;2023-04-22T09:54:03;99473.81;;;22.29;56.11
64616;BME280;51027;42.162;24.754;2023-04-22T09:56:49;99469.78;;;22.04;56.22
64616;BME280;51027;42.162;24.754;2023-04-22T09:59:21;99474.16;;;20.83;60.73
64616;BME280;51027;42.162;24.754;2023-04-22T10:01:49;99478.59;;;21.76;57.32
64616;BME280;51027;42.162;24.754;2023-04-22T10:04:15;99483.16;;;21.95;56.88
64616;BME280;51027;42.162;24.754;2023-04-22T10:06:46;99472.53;;;22.33;53.98
64616;BME280;51027;42.162;24.754;2023-04-22T10:09:11;99474.66;;;22.39;53.69
64616;BME280;51027;42.162;24.754;2023-04-22T10:11:37;99465.31;;;22.34;52.25
64616;BME280;51027;42.162;24.754;2023-04-22T10:14:04;99480.59;;;22.82;52.12
64616;BME280;51027;42.162;24.754;2023-04-22T10:16:31;99477.31;;;22.97;52.02
64616;BME280;51027;42.162;24.754;2023-04-22T10:18:59;99471.41;;;22.94;52.16
64616;BME280;51027;42.162;24.754;2023-04-22T10:21:27;99470.13;;;22.79;53.56
64616;BME280;51027;42.162;24.754;2023-04-22T10:23:54;99473.25;;;22.55;55.05
64616;BME280;51027;42.162;24.754;2023-04-22T10:26:42;99475.91;;;22.35;55.35
64616;BME280;51027;42.162;24.754;2023-04-22T10:29:12;99473.78;;;21.09;56.56
64616;BME280;51027;42.162;24.754;2023-04-22T10:31:44;99482.84;;;20.55;57.63
64616;BME280;51027;42.162;24.754;2023-04-22T10:34:10;99481.03;;;20.76;57.26
64616;BME280;51027;42.162;24.754;2023-04-22T10:36:55;99481.41;;;22.24;52.61
64616;BME280;51027;42.162;24.754;2023-04-22T10:39:25;99475.19;;;21.13;53.71
64616;BME280;51027;42.162;24.754;2023-04-22T10:42:09;99480.56;;;22.24;53.92
64616;BME280;51027;42.162;24.754;2023-04-22T10:47:10;99478.03;;;22.32;51.25
64616;BME280;51027;42.162;24.754;2023-04-22T10:49:35;99476.06;;;22.92;50.37
64616;BME280;51027;42.162;24.754;2023-04-22T10:52:01;99474.22;;;22.83;51.65
64616;BME280;51027;42.162;24.754;2023-04-22T10:59:26;99489.94;;;22.58;52.06
64616;BME280;51027;42.162;24.754;2023-04-22T11:01:51;99447.53;;;22.52;52.51
64616;BME280;51027;42.162;24.754;2023-04-22T11:04:21;99480.59;;;22.72;51.39
64616;BME280;51027;42.162;24.754;2023-04-22T11:09:43;99483.31;;;23.28;50.08
64616;BME280;51027;42.162;24.754;2023-04-22T11:15:14;99502.66;;;21.87;50.79
64616;BME280;51027;42.162;24.754;2023-04-22T11:17:49;99513.25;;;19.32;56.89
64616;BME280;51027;42.162;24.754;2023-04-22T11:20:15;99502.81;;;18.59;59.16
64616;BME280;51027;42.162;24.754;2023-04-22T11:22:49;99515.47;;;17.96;60.07
64616;BME280;51027;42.162;24.754;2023-04-22T11:25:15;99524.06;;;18.12;61.59
64616;BME280;51027;42.162;24.754;2023-04-22T11:27:42;99537.44;;;17.87;63.26
64616;BME280;51027;42.162;24.754;2023-04-22T11:32:34;99554.72;;;17.69;66.22
64616;BME280;51027;42.162;24.754;2023-04-22T11:35:12;99557.28;;;17.58;65.84
64616;BME280;51027;42.162;24.754;2023-04-22T11:37:43;99562.63;;;17.58;65.85
64616;BME280;51027;42.162;24.754;2023-04-22T11:40:10;99579.44;;;17.58;66.02
64616;BME280;51027;42.162;24.754;2023-04-22T11:42:36;99563.09;;;16.86;67.74
64616;BME280;51027;42.162;24.754;2023-04-22T11:45:02;99576.28;;;16.61;70.05
64616;BME280;51027;42.162;24.754;2023-04-22T11:47:29;99581.78;;;16.31;70.99
64616;BME280;51027;42.162;24.754;2023-04-22T11:49:59;99571.13;;;15.90;73.61
64616;BME280;51027;42.162;24.754;2023-04-22T11:52:56;99572.00;;;15.62;77.64
64616;BME280;51027;42.162;24.754;2023-04-22T11:55:24;99570.00;;;15.79;79.94
64616;BME280;51027;42.162;24.754;2023-04-22T12:00:22;99567.72;;;15.88;80.55
64616;BME280;51027;42.162;24.754;2023-04-22T12:02:56;99569.06;;;15.80;80.20
64616;BME280;51027;42.162;24.754;2023-04-22T12:05:33;99578.50;;;15.56;82.11
64616;BME280;51027;42.162;24.754;2023-04-22T12:08:35;99574.44;;;15.36;83.90
64616;BME280;51027;42.162;24.754;2023-04-22T12:11:04;99560.84;;;15.12;90.47
64616;BME280;51027;42.162;24.754;2023-04-22T12:13:32;99580.47;;;15.24;97.47
64616;BME280;51027;42.162;24.754;2023-04-22T12:16:00;99561.22;;;14.76;100.00
64616;BME280;51027;42.162;24.754;2023-04-22T12:18:32;99594.75;;;14.30;100.00
64616;BME280;51027;42.162;24.754;2023-04-22T12:21:07;99591.44;;;14.10;100.00
64616;BME280;51027;42.162;24.754;2023-04-22T12:23:50;99589.63;;;13.95;100.00
64616;BME280;51027;42.162;24.754;2023-04-22T12:26:18;99584.59;;;13.91;100.00
64616;BME280;51027;42.162;24.754;2023-04-22T12:28:45;99590.06;;;14.03;100.00
64616;BME280;51027;42.162;24.754;2023-04-22T12:31:11;99587.84;;;14.11;100.00
64616;BME280;51027;42.162;24.754;2023-04-22T12:33:37;99568.66;;;13.75;100.00
64616;BME280;51027;42.162;24.754;2023-04-22T12:36:04;99591.16;;;13.99;100.00
64616;BME280;51027;42.162;24.754;2023-04-22T12:38:29;99575.19;;;14.17;100.00
64616;BME280;51027;42.162;24.754;2023-04-22T12:40:55;99574.94;;;14.21;100.00
64616;BME280;51027;42.162;24.754;2023-04-22T12:43:20;99573.91;;;14.24;100.00
64616;BME280;51027;42.162;24.754;2023-04-22T12:45:46;99561.50;;;14.40;100.00
64616;BME280;51027;42.162;24.754;2023-04-22T12:48:12;99559.00;;;14.68;100.00
64616;BME280;51027;42.162;24.754;2023-04-22T12:50:39;99555.53;;;14.36;100.00
64616;BME280;51027;42.162;24.754;2023-04-22T12:53:05;99529.81;;;14.23;100.00
64616;BME280;51027;42.162;24.754;2023-04-22T12:55:30;99539.19;;;14.60;100.00
64616;BME280;51027;42.162;24.754;2023-04-22T12:57:56;99543.72;;;14.88;100.00
64616;BME280;51027;42.162;24.754;2023-04-22T13:00:22;99548.63;;;14.80;100.00